createdAt,value
2022-11-21T00:01:23.473Z,1.85
2022-11-21T00:03:50.905Z,2.17
2022-11-21T00:06:19.467Z,1.25
2022-11-21T00:08:47.080Z,1.05
2022-11-21T00:11:14.636Z,0.95
2022-11-21T00:13:42.743Z,1.05
2022-11-21T00:16:13.821Z,1.10
2022-11-21T00:18:41.727Z,1.50
2022-11-21T00:21:13.471Z,1.30
2022-11-21T00:26:09.698Z,0.80
2022-11-21T00:28:36.982Z,1.40
2022-11-21T00:31:05.580Z,1.35
2022-11-21T00:33:35.231Z,1.23
2022-11-21T00:36:09.902Z,0.90
2022-11-21T00:38:37.631Z,0.80
2022-11-21T00:41:05.948Z,1.10
2022-11-21T00:43:33.504Z,0.65
2022-11-21T00:46:02.959Z,1.05
2022-11-21T00:48:31.751Z,1.35
2022-11-21T00:51:00.864Z,1.42
2022-11-21T00:53:29.080Z,0.82
2022-11-21T00:55:56.506Z,0.50
2022-11-21T00:58:23.824Z,0.93
2022-11-21T01:00:51.154Z,0.75
2022-11-21T01:03:18.681Z,0.90
2022-11-21T01:05:45.781Z,0.77
2022-11-21T01:08:13.001Z,0.80
2022-11-21T01:10:40.141Z,0.75
2022-11-21T01:13:07.399Z,0.43
2022-11-21T01:15:34.898Z,0.32
2022-11-21T01:18:02.062Z,0.30
2022-11-21T01:20:29.190Z,0.52
2022-11-21T01:22:56.386Z,0.70
2022-11-21T01:25:23.673Z,0.77
2022-11-21T01:27:50.855Z,0.98
2022-11-21T01:30:18.112Z,0.55
2022-11-21T01:32:49.980Z,0.60
2022-11-21T01:35:18.337Z,0.50
2022-11-21T01:37:49.629Z,0.17
2022-11-21T01:40:17.314Z,0.77
2022-11-21T01:43:10.304Z,0.68
2022-11-21T01:45:59.714Z,0.57
2022-11-21T01:49:04.532Z,0.90
2022-11-21T01:51:47.013Z,0.35
2022-11-21T01:54:25.504Z,0.20
2022-11-21T01:57:22.826Z,0.20
2022-11-21T02:00:03.235Z,0.35
2022-11-21T02:02:37.991Z,0.57
2022-11-21T02:05:09.487Z,0.38
2022-11-21T02:07:41.474Z,0.28
2022-11-21T02:10:10.437Z,0.88
2022-11-21T02:12:51.912Z,0.43
2022-11-21T02:15:21.536Z,0.40
2022-11-21T02:17:48.718Z,0.20
2022-11-21T02:20:19.419Z,0.20
2022-11-21T02:23:18.824Z,0.63
2022-11-21T02:25:46.168Z,0.38
2022-11-21T02:28:17.146Z,0.38
2022-11-21T02:30:44.655Z,0.28
2022-11-21T02:33:13.347Z,0.90
2022-11-21T02:35:40.925Z,0.25
2022-11-21T02:38:18.755Z,0.25
2022-11-21T02:41:02.217Z,0.52
2022-11-21T02:43:38.363Z,0.30
2022-11-21T02:46:05.502Z,0.57
2022-11-21T02:48:32.644Z,0.52
2022-11-21T02:50:59.873Z,0.32
2022-11-21T02:53:27.048Z,0.40
2022-11-21T02:55:54.202Z,0.22
2022-11-21T02:58:21.247Z,0.88
2022-11-21T03:00:48.481Z,0.63
2022-11-21T03:03:15.700Z,0.50
2022-11-21T03:05:43.307Z,0.30
2022-11-21T03:08:10.493Z,0.52
2022-11-21T03:10:37.847Z,0.60
2022-11-21T03:13:05.070Z,1.50
2022-11-21T03:15:34.971Z,0.77
2022-11-21T03:18:03.172Z,0.75
2022-11-21T03:20:32.769Z,0.80
2022-11-21T03:22:59.822Z,1.00
2022-11-21T03:25:27.001Z,0.30
2022-11-21T03:27:54.670Z,0.22
2022-11-21T03:30:25.782Z,0.30
2022-11-21T03:32:56.966Z,0.20
2022-11-21T03:35:24.870Z,0.85
2022-11-21T03:37:52.215Z,0.38
2022-11-21T03:40:19.299Z,0.32
2022-11-21T03:42:46.726Z,0.80
2022-11-21T03:45:13.789Z,0.75
2022-11-21T03:47:41.329Z,0.57
2022-11-21T03:50:08.905Z,0.63
2022-11-21T03:52:36.052Z,0.35
2022-11-21T03:55:03.414Z,0.20
2022-11-21T03:57:30.594Z,0.20
2022-11-21T03:59:57.632Z,0.60
2022-11-21T04:02:24.711Z,0.25
2022-11-21T04:04:51.913Z,0.60
2022-11-21T04:07:19.054Z,0.55
2022-11-21T04:09:46.335Z,0.68
2022-11-21T04:12:13.369Z,0.30
2022-11-21T04:14:40.496Z,0.20
2022-11-21T04:17:07.614Z,0.13
2022-11-21T04:19:34.734Z,0.30
2022-11-21T04:22:01.780Z,0.20
2022-11-21T04:24:29.690Z,0.77
2022-11-21T04:26:57.223Z,0.40
2022-11-21T04:29:24.312Z,0.10
2022-11-21T04:31:51.494Z,0.80
2022-11-21T04:34:18.642Z,0.45
2022-11-21T04:36:46.049Z,0.20
2022-11-21T04:39:13.306Z,0.45
2022-11-21T04:41:40.464Z,1.65
2022-11-21T04:44:07.631Z,0.82
2022-11-21T04:46:34.765Z,0.47
2022-11-21T04:49:02.029Z,4.25
2022-11-21T04:51:29.207Z,3.85
2022-11-21T04:53:56.252Z,3.28
2022-11-21T04:56:23.448Z,3.42
2022-11-21T04:58:53.499Z,3.53
2022-11-21T05:01:20.640Z,4.10
2022-11-21T05:03:48.046Z,3.97
2022-11-21T05:06:15.258Z,2.65
2022-11-21T05:08:42.269Z,1.98
2022-11-21T05:11:28.051Z,1.10
2022-11-21T05:13:55.638Z,1.00
2022-11-21T05:16:22.907Z,2.20
2022-11-21T05:18:50.054Z,4.82
2022-11-21T05:21:17.163Z,3.28
2022-11-21T05:23:44.336Z,3.38
2022-11-21T05:26:11.472Z,2.53
2022-11-21T05:28:38.708Z,1.95
2022-11-21T05:31:05.732Z,1.88
2022-11-21T05:33:32.953Z,1.40
2022-11-21T05:36:00.001Z,0.95
2022-11-21T05:38:27.132Z,0.95
2022-11-21T05:40:54.240Z,0.55
2022-11-21T05:43:40.075Z,0.60
2022-11-21T05:46:07.284Z,0.55
2022-11-21T05:48:36.681Z,0.70
2022-11-21T05:51:05.104Z,0.35
2022-11-21T05:53:32.680Z,0.95
2022-11-21T05:56:12.040Z,0.68
2022-11-21T05:58:39.721Z,0.13
2022-11-21T06:01:08.413Z,1.23
2022-11-21T06:03:39.704Z,1.20
2022-11-21T06:06:11.884Z,0.52
2022-11-21T06:08:43.174Z,0.82
2022-11-21T06:11:16.450Z,1.25
2022-11-21T06:13:43.974Z,1.77
2022-11-21T06:16:14.822Z,1.45
2022-11-21T06:18:44.633Z,1.70
2022-11-21T06:21:18.300Z,0.93
2022-11-21T06:23:46.737Z,1.20
2022-11-21T06:26:19.693Z,0.95
2022-11-21T06:28:48.017Z,1.60
2022-11-21T06:31:20.251Z,1.25
2022-11-21T06:33:48.166Z,2.45
2022-11-21T06:36:17.785Z,2.00
2022-11-21T06:38:46.319Z,1.48
2022-11-21T06:41:19.997Z,0.93
2022-11-21T06:43:47.561Z,1.55
2022-11-21T06:46:16.232Z,1.20
2022-11-21T06:48:44.196Z,1.90
2022-11-21T06:51:20.012Z,2.67
2022-11-21T06:53:48.898Z,1.98
2022-11-21T06:56:16.224Z,0.75
2022-11-21T06:58:43.323Z,1.80
2022-11-21T07:01:11.223Z,0.90
2022-11-21T07:03:38.292Z,1.10
2022-11-21T07:06:06.738Z,1.08
2022-11-21T07:08:40.865Z,1.10
2022-11-21T07:11:28.788Z,0.52
2022-11-21T07:13:56.633Z,1.58
2022-11-21T07:16:26.366Z,1.17
2022-11-21T07:18:53.774Z,0.95
2022-11-21T07:21:20.902Z,0.73
2022-11-21T07:23:48.744Z,0.40
2022-11-21T07:26:15.982Z,0.22
2022-11-21T07:28:43.708Z,0.32
2022-11-21T07:31:13.915Z,0.20
2022-11-21T07:33:43.599Z,0.60
2022-11-21T07:36:12.807Z,1.25
2022-11-21T07:38:41.423Z,2.25
2022-11-21T07:41:09.726Z,0.80
2022-11-21T07:43:36.825Z,1.27
2022-11-21T07:46:04.002Z,0.30
2022-11-21T07:48:31.159Z,1.17
2022-11-21T07:50:58.185Z,0.45
2022-11-21T07:53:25.466Z,0.50
2022-11-21T07:55:52.642Z,0.30
2022-11-21T07:58:19.715Z,0.55
2022-11-21T08:00:46.935Z,1.00
2022-11-21T08:03:14.424Z,1.60
2022-11-21T08:05:44.000Z,0.30
2022-11-21T08:08:12.892Z,1.38
2022-11-21T08:10:45.730Z,0.80
2022-11-21T08:13:13.515Z,0.73
2022-11-21T08:15:41.073Z,1.23
2022-11-21T08:18:19.173Z,0.80
2022-11-21T08:20:46.826Z,5.78
2022-11-21T08:23:14.106Z,5.63
2022-11-21T08:25:42.961Z,4.80
2022-11-21T08:28:11.890Z,3.90
2022-11-21T08:30:40.124Z,2.50
2022-11-21T08:33:07.799Z,2.28
2022-11-21T08:35:38.429Z,2.28
2022-11-21T08:38:06.548Z,1.92
2022-11-21T08:40:34.959Z,2.30
2022-11-21T08:43:10.860Z,1.50
2022-11-21T08:45:39.747Z,2.45
2022-11-21T08:48:11.995Z,2.00
2022-11-21T08:50:39.380Z,1.90
2022-11-21T08:53:06.646Z,1.75
2022-11-21T08:55:33.911Z,1.50
2022-11-21T08:58:01.132Z,1.30
2022-11-21T09:00:28.995Z,0.98
2022-11-21T09:02:56.249Z,1.00
2022-11-21T09:05:23.253Z,1.00
2022-11-21T09:07:57.747Z,1.35
2022-11-21T09:10:29.523Z,1.45
2022-11-21T09:15:45.881Z,0.93
2022-11-21T09:18:13.193Z,1.42
2022-11-21T09:20:43.540Z,1.35
2022-11-21T09:23:16.720Z,1.20
2022-11-21T09:25:46.897Z,1.05
2022-11-21T09:28:14.885Z,2.00
2022-11-21T09:30:43.202Z,1.38
2022-11-21T09:33:16.916Z,1.10
2022-11-21T09:35:44.379Z,1.00
2022-11-21T09:38:12.757Z,1.23
2022-11-21T09:40:45.302Z,1.10
2022-11-21T09:43:38.368Z,0.90
2022-11-21T09:46:16.227Z,1.20
2022-11-21T09:48:59.141Z,1.45
2022-11-21T09:51:31.214Z,1.48
2022-11-21T09:54:07.007Z,2.75
2022-11-21T09:56:39.554Z,3.17
2022-11-21T09:59:21.681Z,3.78
2022-11-21T10:01:49.007Z,2.30
2022-11-21T10:04:16.320Z,1.50
2022-11-21T10:07:10.434Z,1.83
2022-11-21T10:10:15.035Z,1.17
2022-11-21T10:13:37.825Z,1.02
2022-11-21T10:16:31.352Z,3.38
2022-11-21T10:19:15.380Z,2.95
2022-11-21T10:22:29.216Z,1.80
2022-11-21T10:25:26.872Z,2.00
2022-11-21T10:28:02.376Z,1.63
2022-11-21T10:30:29.998Z,1.10
2022-11-21T10:33:05.481Z,0.68
2022-11-21T10:35:40.805Z,1.10
2022-11-21T10:38:26.710Z,2.13
2022-11-21T10:41:05.532Z,2.13
2022-11-21T10:44:17.748Z,2.20
2022-11-21T10:46:59.584Z,2.22
2022-11-21T10:49:30.006Z,2.85
2022-11-21T10:52:10.289Z,1.67
2022-11-21T10:55:03.225Z,3.25
2022-11-21T10:57:44.168Z,1.90
2022-11-21T11:00:34.747Z,1.98
2022-11-21T11:03:10.364Z,1.17
2022-11-21T11:05:38.650Z,1.13
2022-11-21T11:08:08.923Z,1.00
2022-11-21T11:11:04.374Z,1.15
2022-11-21T11:13:45.985Z,3.20
2022-11-21T11:16:21.172Z,2.38
2022-11-21T11:19:14.968Z,1.63
2022-11-21T11:21:44.476Z,0.77
2022-11-21T11:24:11.610Z,1.20
2022-11-21T11:26:48.930Z,0.55
2022-11-21T11:29:22.073Z,1.65
2022-11-21T11:32:10.556Z,0.40
2022-11-21T11:34:42.298Z,0.38
2022-11-21T11:37:42.454Z,1.90
2022-11-21T11:40:23.417Z,1.90
2022-11-21T11:43:54.083Z,1.60
2022-11-21T11:47:19.170Z,1.63
2022-11-21T11:50:11.436Z,1.35
2022-11-21T11:53:12.246Z,1.67
2022-11-21T11:56:20.789Z,2.22
2022-11-21T11:59:40.780Z,1.80
2022-11-21T12:02:27.673Z,0.93
2022-11-21T12:05:08.595Z,1.85
2022-11-21T12:11:08.096Z,0.73
2022-11-21T12:13:37.386Z,1.30
2022-11-21T12:16:13.780Z,0.75
2022-11-21T12:19:00.760Z,1.17
2022-11-21T12:21:29.294Z,1.05
2022-11-21T12:23:58.537Z,1.13
2022-11-21T12:27:02.877Z,1.83
2022-11-21T12:30:10.811Z,0.98
2022-11-21T12:33:08.238Z,0.85
2022-11-21T12:35:47.968Z,2.63
2022-11-21T12:38:43.489Z,1.48
2022-11-21T12:42:03.177Z,1.50
2022-11-21T12:45:12.646Z,1.08
2022-11-21T12:48:29.086Z,0.75
2022-11-21T12:51:46.075Z,0.73
2022-11-21T12:54:57.990Z,2.45
2022-11-21T12:57:58.836Z,0.88
2022-11-21T13:01:21.740Z,0.47
2022-11-21T13:04:05.601Z,1.10
2022-11-21T13:06:39.378Z,0.70
2022-11-21T13:09:12.900Z,0.98
2022-11-21T13:12:00.651Z,1.10
2022-11-21T13:14:52.179Z,1.58
2022-11-21T13:17:28.611Z,1.27
2022-11-21T13:20:37.629Z,1.63
2022-11-21T13:23:08.983Z,10.65
2022-11-21T13:25:41.053Z,5.32
2022-11-21T13:28:14.194Z,3.88
2022-11-21T13:30:57.997Z,2.65
2022-11-21T13:33:37.429Z,1.65
2022-11-21T13:36:09.388Z,1.10
2022-11-21T13:39:32.703Z,1.17
2022-11-21T13:42:27.793Z,1.10
2022-11-21T13:44:55.382Z,2.47
2022-11-21T13:47:56.732Z,2.20
2022-11-21T13:50:37.892Z,1.75
2022-11-21T13:53:40.462Z,1.27
2022-11-21T13:56:35.041Z,1.73
2022-11-21T13:59:22.977Z,1.33
2022-11-21T14:02:07.646Z,2.22
2022-11-21T14:05:24.163Z,1.05
2022-11-21T14:07:51.544Z,1.17
2022-11-21T14:10:34.473Z,0.77
2022-11-21T14:13:03.696Z,0.55
2022-11-21T14:15:49.857Z,1.55
2022-11-21T14:18:25.014Z,1.75
2022-11-21T14:20:57.469Z,1.13
2022-11-21T14:23:28.519Z,1.27
2022-11-21T14:26:20.062Z,2.47
2022-11-21T14:28:47.981Z,1.77
2022-11-21T14:31:16.014Z,2.45
2022-11-21T14:33:48.030Z,2.33
2022-11-21T14:36:22.027Z,2.00
2022-11-21T14:39:28.809Z,1.35
2022-11-21T14:41:51.986Z,1.05
2022-11-21T14:44:22.139Z,1.50
2022-11-21T14:46:50.756Z,1.58
2022-11-21T14:49:23.108Z,1.05
2022-11-21T14:52:11.320Z,1.75
2022-11-21T14:55:28.587Z,5.55
2022-11-21T14:57:42.972Z,5.80
2022-11-21T15:00:43.396Z,11.05
2022-11-21T15:03:05.348Z,13.18
2022-11-21T15:06:00.758Z,9.77
2022-11-21T15:11:15.420Z,6.63
2022-11-21T15:16:33.537Z,3.72
2022-11-21T15:19:00.625Z,3.53
2022-11-21T15:21:27.898Z,3.75
2022-11-21T15:23:55.957Z,2.80
2022-11-21T15:26:31.817Z,2.83
2022-11-21T15:29:01.137Z,3.30
2022-11-21T15:31:28.628Z,4.68
2022-11-21T15:34:34.727Z,4.78
2022-11-21T15:37:27.921Z,8.20
2022-11-21T15:39:55.225Z,5.18
2022-11-21T15:42:33.934Z,4.82
2022-11-21T15:45:20.020Z,5.18
2022-11-21T15:50:30.382Z,3.05
2022-11-21T15:52:57.434Z,3.92
2022-11-21T15:55:31.626Z,5.60
2022-11-21T15:57:13.406Z,4.78
2022-11-21T15:57:58.709Z,5.40
2022-11-21T16:00:25.883Z,5.47
2022-11-21T16:02:53.162Z,5.05
2022-11-21T16:05:20.342Z,3.33
2022-11-21T16:07:48.517Z,2.40
2022-11-21T16:10:21.396Z,1.98
2022-11-21T16:12:53.385Z,2.88
2022-11-21T16:15:20.621Z,2.60
2022-11-21T16:17:48.057Z,2.22
2022-11-21T16:20:15.636Z,2.25
2022-11-21T16:22:47.066Z,4.15
2022-11-21T16:25:15.616Z,6.57
2022-11-21T16:27:42.763Z,7.70
2022-11-21T16:30:10.515Z,6.70
2022-11-21T16:32:38.220Z,9.13
2022-11-21T16:35:06.247Z,9.07
2022-11-21T16:37:33.753Z,9.05
2022-11-21T16:40:00.927Z,12.77
2022-11-21T16:42:29.139Z,11.32
2022-11-21T16:44:56.150Z,11.10
2022-11-21T16:47:23.340Z,6.80
2022-11-21T16:49:50.541Z,5.70
2022-11-21T16:52:18.231Z,5.72
2022-11-21T16:54:45.583Z,6.30
2022-11-21T16:57:12.730Z,7.18
2022-11-21T16:59:39.823Z,5.88
2022-11-21T17:02:07.253Z,4.60
2022-11-21T17:04:36.198Z,7.93
2022-11-21T17:07:03.454Z,4.35
2022-11-21T17:09:30.996Z,4.55
2022-11-21T17:11:59.399Z,4.05
2022-11-21T17:14:26.888Z,5.10
2022-11-21T17:16:54.412Z,5.85
2022-11-21T17:19:22.031Z,5.55
2022-11-21T17:21:49.188Z,7.72
2022-11-21T17:24:16.452Z,6.85
2022-11-21T17:26:43.560Z,6.35
2022-11-21T17:29:10.729Z,5.82
2022-11-21T17:31:37.891Z,5.75
2022-11-21T17:34:04.982Z,3.30
2022-11-21T17:36:34.630Z,4.55
2022-11-21T17:39:02.121Z,5.30
2022-11-21T17:41:29.311Z,4.55
2022-11-21T17:43:58.136Z,4.07
2022-11-21T17:46:26.722Z,3.92
2022-11-21T17:48:58.259Z,3.78
2022-11-21T17:51:34.892Z,2.70
2022-11-21T17:54:02.697Z,3.35
2022-11-21T17:56:33.340Z,3.85
2022-11-21T17:59:00.786Z,4.25
2022-11-21T18:01:28.730Z,3.95
2022-11-21T18:04:02.145Z,3.25
2022-11-21T18:06:37.982Z,3.97
2022-11-21T18:09:07.261Z,2.95
2022-11-21T18:11:39.993Z,3.15
2022-11-21T18:14:10.143Z,3.17
2022-11-21T18:16:39.433Z,4.35
2022-11-21T18:19:07.493Z,3.95
2022-11-21T18:21:38.239Z,4.38
2022-11-21T18:24:05.681Z,3.73
2022-11-21T18:26:36.860Z,3.80
2022-11-21T18:29:34.568Z,3.83
2022-11-21T18:31:54.445Z,3.42
2022-11-21T18:34:21.512Z,4.00
2022-11-21T18:36:51.417Z,4.90
2022-11-21T18:39:18.851Z,7.15
2022-11-21T18:41:47.137Z,6.28
2022-11-21T18:44:21.435Z,6.70
2022-11-21T18:46:49.253Z,7.65
2022-11-21T18:49:16.499Z,6.22
2022-11-21T18:51:43.546Z,6.85
2022-11-21T18:54:11.394Z,5.10
2022-11-21T18:56:39.941Z,5.82
2022-11-21T18:59:07.967Z,5.40
2022-11-21T19:01:37.529Z,6.35
2022-11-21T19:04:05.516Z,4.95
2022-11-21T19:06:32.778Z,6.00
2022-11-21T19:08:59.983Z,5.65
2022-11-21T19:11:29.798Z,4.68
2022-11-21T19:13:59.304Z,4.97
2022-11-21T19:16:28.743Z,5.40
2022-11-21T19:21:43.918Z,5.25
2022-11-21T19:24:19.559Z,4.50
2022-11-21T19:26:46.861Z,4.38
2022-11-21T19:29:14.058Z,3.90
2022-11-21T19:31:45.772Z,3.72
2022-11-21T19:34:15.098Z,4.93
2022-11-21T19:36:42.993Z,4.90
2022-11-21T19:39:10.654Z,2.92
2022-11-21T19:41:38.086Z,3.63
2022-11-21T19:44:05.207Z,3.85
2022-11-21T19:46:38.695Z,3.08
2022-11-21T19:49:07.439Z,3.47
2022-11-21T19:51:41.176Z,3.80
2022-11-21T19:54:12.163Z,3.25
2022-11-21T19:56:40.432Z,3.40
2022-11-21T19:59:09.996Z,3.80
2022-11-21T20:01:39.383Z,3.38
2022-11-21T20:04:07.132Z,4.00
2022-11-21T20:06:37.450Z,4.13
2022-11-21T20:09:07.647Z,4.38
2022-11-21T20:11:38.335Z,4.03
2022-11-21T20:14:05.580Z,4.00
2022-11-21T20:16:41.342Z,5.07
2022-11-21T20:19:14.964Z,4.13
2022-11-21T20:21:43.818Z,3.88
2022-11-21T20:24:12.458Z,4.00
2022-11-21T20:26:40.600Z,4.15
2022-11-21T20:29:08.791Z,2.65
2022-11-21T20:31:37.520Z,3.40
2022-11-21T20:34:09.964Z,2.00
2022-11-21T20:36:37.126Z,2.97
2022-11-21T20:39:14.393Z,2.53
2022-11-21T20:41:41.705Z,2.72
2022-11-21T20:45:36.426Z,2.72
2022-11-21T20:47:18.598Z,1.92
2022-11-21T20:49:45.741Z,2.50
2022-11-21T20:54:59.986Z,1.98
2022-11-21T20:57:27.663Z,2.85
2022-11-21T20:59:54.826Z,3.05
2022-11-21T21:02:21.912Z,3.42
2022-11-21T21:04:49.108Z,3.10
2022-11-21T21:07:16.450Z,2.53
2022-11-21T21:09:43.570Z,3.55
2022-11-21T21:12:10.765Z,3.78
2022-11-21T21:14:37.839Z,3.97
2022-11-21T21:17:05.034Z,2.30
2022-11-21T21:19:32.315Z,2.35
2022-11-21T21:21:59.797Z,2.10
2022-11-21T21:24:27.782Z,2.85
2022-11-21T21:26:54.952Z,2.40
2022-11-21T21:29:22.402Z,2.83
2022-11-21T21:31:52.301Z,2.70
2022-11-21T21:34:22.187Z,2.40
2022-11-21T21:36:50.876Z,4.10
2022-11-21T21:39:18.292Z,3.65
2022-11-21T21:41:47.305Z,3.17
2022-11-21T21:44:15.997Z,2.67
2022-11-21T21:46:43.602Z,2.90
2022-11-21T21:49:11.071Z,3.10
2022-11-21T21:51:38.655Z,3.63
2022-11-21T21:54:06.591Z,2.30
2022-11-21T21:56:34.354Z,3.22
2022-11-21T21:59:01.707Z,2.88
2022-11-21T22:01:33.290Z,2.65
2022-11-21T22:04:04.982Z,2.95
2022-11-21T22:09:03.221Z,2.53
2022-11-21T22:11:33.270Z,2.55
2022-11-21T22:14:04.764Z,2.72
2022-11-21T22:16:33.585Z,2.78
2022-11-21T22:19:00.656Z,3.30
2022-11-21T22:21:32.855Z,4.13
2022-11-21T22:24:24.154Z,3.10
2022-11-21T22:26:50.055Z,2.40
2022-11-21T22:29:17.478Z,4.18
2022-11-21T22:31:44.734Z,3.72
2022-11-21T22:34:15.949Z,2.95
2022-11-21T22:36:43.479Z,4.60
2022-11-21T22:39:10.598Z,4.80
2022-11-21T22:41:37.847Z,4.75
2022-11-21T22:44:05.304Z,3.50
2022-11-21T22:46:33.022Z,5.90
2022-11-21T22:49:00.052Z,4.68
2022-11-21T22:51:29.821Z,4.32
2022-11-21T22:53:57.377Z,3.15
2022-11-21T22:56:26.043Z,3.10
2022-11-21T22:58:53.679Z,5.57
2022-11-21T23:01:24.007Z,3.55
2022-11-21T23:03:51.668Z,5.63
2022-11-21T23:06:24.748Z,4.53
2022-11-21T23:08:53.607Z,4.00
2022-11-21T23:11:27.902Z,3.92
2022-11-21T23:13:56.729Z,3.70
2022-11-21T23:16:24.738Z,3.40
2022-11-21T23:18:56.851Z,3.85
2022-11-21T23:21:24.340Z,3.95
2022-11-21T23:23:51.391Z,6.25
2022-11-21T23:26:19.062Z,4.13
2022-11-21T23:28:46.248Z,4.18
2022-11-21T23:31:13.762Z,4.13
2022-11-21T23:33:40.945Z,4.78
2022-11-21T23:36:08.029Z,4.10
2022-11-21T23:38:35.408Z,4.75
2022-11-21T23:41:02.514Z,4.35
2022-11-21T23:43:29.671Z,5.13
2022-11-21T23:45:56.800Z,4.70
2022-11-21T23:48:27.452Z,4.35
2022-11-21T23:50:54.571Z,5.60
2022-11-21T23:53:22.633Z,6.07
2022-11-21T23:55:49.835Z,6.68
2022-11-21T23:58:17.335Z,4.85
